Time;durP1;ratioP1;P1;durP2;ratioP2;P2;SDS_P1;SDS_P2;PMS_P1;PMS_P2;Temp;Humidity;BMP_temperature;BMP_pressure;BME280_temperature;BME280_humidity;BME280_pressure;Samples;Min_cycle;Max_cycle;Signal;HPM_P1;HPM_P2
2020/12/09 00:01:40;;;;;;;26.63;21.43;;;3.30;85.90;;;;;;5006368;28;20210;-88
2020/12/09 00:04:06;;;;;;;26.37;21.87;;;3.30;85.50;;;;;;5006764;28;20241;-86
2020/12/09 00:06:38;;;;;;;28.23;22.07;;;3.20;85.90;;;;;;5007091;28;20673;-90
2020/12/09 00:09:12;;;;;;;25.23;20.43;;;3.20;86.70;;;;;;5009425;28;20228;-89
2020/12/09 00:11:38;;;;;;;26.73;22.73;;;3.20;87.10;;;;;;5011392;28;20313;-88
2020/12/09 00:14:05;;;;;;;27.13;22.73;;;3.10;87.80;;;;;;4990883;28;20241;-90
2020/12/09 00:16:31;;;;;;;25.60;22.40;;;3.00;88.50;;;;;;5007136;28;20183;-89
2020/12/09 00:18:57;;;;;;;28.47;23.60;;;3.00;88.60;;;;;;5007047;28;20182;-88
2020/12/09 00:21:24;;;;;;;27.50;22.27;;;3.00;88.50;;;;;;5006143;28;20209;-89
2020/12/09 00:23:51;;;;;;;30.17;23.53;;;3.00;88.40;;;;;;5006506;28;20193;-89
2020/12/09 00:26:21;;;;;;;30.60;23.77;;;3.00;88.50;;;;;;5006911;28;20228;-88
2020/12/09 00:28:47;;;;;;;29.23;23.07;;;3.00;88.40;;;;;;5007297;28;20265;-88
2020/12/09 00:31:18;;;;;;;32.93;25.87;;;2.90;89.50;;;;;;5007690;28;20208;-89
2020/12/09 00:33:45;;;;;;;30.17;24.47;;;3.00;88.80;;;;;;5007081;28;20175;-88
2020/12/09 00:36:14;;;;;;;27.80;23.27;;;3.00;89.20;;;;;;5006097;28;20198;-90
2020/12/09 00:38:40;;;;;;;30.67;23.43;;;2.80;91.20;;;;;;4989355;28;20214;-89
2020/12/09 00:41:06;;;;;;;29.90;23.97;;;2.80;90.40;;;;;;5007673;28;20543;-88
2020/12/09 00:43:31;;;;;;;30.07;23.13;;;2.90;90.40;;;;;;5005189;28;20249;-89
2020/12/09 00:45:57;;;;;;;30.20;23.47;;;2.90;90.20;;;;;;5006526;28;20206;-89
2020/12/09 00:48:23;;;;;;;30.13;24.50;;;2.80;90.40;;;;;;5005488;28;20189;-89
2020/12/09 00:50:49;;;;;;;30.87;24.20;;;2.80;90.90;;;;;;5004870;28;20202;-89
2020/12/09 00:53:15;;;;;;;30.83;23.70;;;2.60;91.80;;;;;;5009493;28;20646;-89
2020/12/09 00:55:40;;;;;;;29.93;23.90;;;2.50;92.30;;;;;;5006639;28;20182;-89
2020/12/09 00:58:06;;;;;;;28.27;23.47;;;2.60;93.70;;;;;;5007090;28;20589;-89
2020/12/09 01:00:32;;;;;;;28.23;23.57;;;2.70;91.60;;;;;;5005793;28;20200;-88
2020/12/09 01:02:57;;;;;;;30.53;24.10;;;2.60;91.90;;;;;;5013686;28;20194;-89
2020/12/09 01:05:23;;;;;;;29.70;24.07;;;2.60;92.60;;;;;;5009931;28;20237;-90
2020/12/09 01:07:49;;;;;;;30.10;24.97;;;2.60;92.40;;;;;;5010830;28;20229;-89
2020/12/09 01:10:15;;;;;;;32.70;25.00;;;2.80;91.90;;;;;;5009454;28;20209;-87
2020/12/09 01:12:42;;;;;;;31.87;25.13;;;2.70;91.80;;;;;;5007158;28;20230;-90
2020/12/09 01:15:08;;;;;;;32.30;24.70;;;2.70;91.60;;;;;;5007213;28;20182;-90
2020/12/09 01:17:34;;;;;;;31.13;24.73;;;2.70;91.30;;;;;;5010143;28;20657;-90
2020/12/09 01:20:04;;;;;;;31.27;24.90;;;2.70;91.50;;;;;;5010222;28;20189;-90
2020/12/09 01:22:30;;;;;;;30.20;24.27;;;2.60;91.80;;;;;;5010733;28;20755;-90
2020/12/09 01:24:58;;;;;;;30.83;25.63;;;2.60;92.40;;;;;;5008876;28;20210;-90
2020/12/09 01:27:24;;;;;;;30.03;23.80;;;2.60;92.00;;;;;;5007587;28;20206;-90
2020/12/09 01:29:51;;;;;;;32.17;24.90;;;2.60;92.80;;;;;;5009576;28;20182;-90
2020/12/09 01:32:18;;;;;;;32.37;24.87;;;2.60;91.90;;;;;;5009882;28;20198;-90
2020/12/09 01:34:43;;;;;;;28.23;23.53;;;2.70;91.90;;;;;;5010204;28;20222;-89
2020/12/09 01:37:09;;;;;;;28.83;23.70;;;2.80;91.50;;;;;;5010436;28;20286;-90
2020/12/09 01:39:35;;;;;;;29.33;23.90;;;2.80;90.90;;;;;;5010360;28;20182;-90
2020/12/09 01:42:00;;;;;;;27.27;22.70;;;2.90;90.80;;;;;;4992395;28;20210;-89
2020/12/09 01:44:26;;;;;;;26.53;21.57;;;3.10;89.40;;;;;;5010226;28;20189;-89
2020/12/09 01:46:53;;;;;;;31.07;24.10;;;3.20;88.60;;;;;;5008979;28;20292;-89
2020/12/09 01:49:19;;;;;;;29.17;24.17;;;3.20;88.40;;;;;;5009570;28;20182;-90
2020/12/09 01:51:46;;;;;;;29.13;23.90;;;3.10;89.00;;;;;;5013116;28;20205;-85
2020/12/09 01:54:12;;;;;;;27.63;22.20;;;3.10;89.50;;;;;;5019862;28;20198;-86
2020/12/09 01:56:37;;;;;;;27.77;22.77;;;3.10;89.60;;;;;;5010573;28;20261;-90
2020/12/09 01:59:03;;;;;;;29.27;23.33;;;3.20;88.80;;;;;;5010298;28;20194;-89
2020/12/09 02:01:31;;;;;;;27.77;24.03;;;3.10;88.90;;;;;;5018321;28;20217;-87
2020/12/09 02:03:57;;;;;;;27.40;22.33;;;3.10;89.10;;;;;;5020378;28;20226;-85
2020/12/09 02:06:23;;;;;;;28.73;23.87;;;3.00;89.10;;;;;;5010537;28;20241;-90
2020/12/09 02:08:48;;;;;;;28.60;22.67;;;3.10;89.10;;;;;;5009398;28;20662;-88
2020/12/09 02:11:15;;;;;;;28.10;23.07;;;3.20;88.90;;;;;;5009850;28;20294;-90
2020/12/09 02:13:43;;;;;;;29.03;22.57;;;3.10;89.30;;;;;;5008583;28;20182;-90
2020/12/09 02:16:09;;;;;;;29.70;22.87;;;3.20;88.70;;;;;;5009173;28;20334;-87
2020/12/09 02:18:34;;;;;;;27.30;21.60;;;3.10;89.70;;;;;;5010839;28;20259;-88
2020/12/09 02:21:01;;;;;;;27.77;22.73;;;3.00;90.40;;;;;;5009934;28;20202;-89
2020/12/09 02:23:26;;;;;;;29.73;22.77;;;2.90;90.40;;;;;;5008503;28;20190;-89
2020/12/09 02:25:52;;;;;;;30.30;25.03;;;2.80;91.20;;;;;;5008135;28;20265;-89
2020/12/09 02:28:18;;;;;;;35.07;25.73;;;2.80;91.50;;;;;;5024322;28;20669;-88
2020/12/09 02:30:43;;;;;;;32.03;25.30;;;2.70;92.00;;;;;;5008046;28;20229;-88
2020/12/09 02:33:09;;;;;;;30.53;25.13;;;2.80;92.30;;;;;;5008234;28;20190;-88
2020/12/09 02:35:35;;;;;;;30.20;24.43;;;2.70;92.20;;;;;;5009263;28;20190;-88
2020/12/09 02:38:01;;;;;;;33.97;25.77;;;2.70;92.00;;;;;;5008933;28;20248;-89
2020/12/09 02:40:27;;;;;;;34.27;25.57;;;2.70;92.00;;;;;;5009763;28;20182;-88
2020/12/09 02:42:53;;;;;;;32.27;24.97;;;2.70;92.20;;;;;;5008405;28;20206;-88
2020/12/09 02:45:18;;;;;;;33.67;24.17;;;2.70;92.30;;;;;;5009104;28;20210;-88
2020/12/09 02:47:44;;;;;;;32.20;25.80;;;2.80;92.20;;;;;;5007559;28;20193;-88
2020/12/09 02:50:10;;;;;;;34.17;25.73;;;2.70;92.50;;;;;;5008696;28;20194;-90
2020/12/09 02:52:35;;;;;;;32.83;24.60;;;2.80;92.20;;;;;;4974743;28;20261;-88
2020/12/09 02:55:01;;;;;;;34.47;24.50;;;2.80;92.10;;;;;;5008504;28;20198;-91
2020/12/09 02:57:27;;;;;;;32.43;25.93;;;2.80;91.80;;;;;;5007352;28;20290;-90
2020/12/09 02:59:53;;;;;;;31.50;25.10;;;2.80;92.00;;;;;;5008266;28;20178;-88
2020/12/09 03:02:18;;;;;;;31.70;25.00;;;2.80;92.50;;;;;;5030059;28;20206;-88
2020/12/09 03:04:44;;;;;;;32.43;24.90;;;2.70;92.80;;;;;;5016907;28;20198;-86
2020/12/09 03:07:10;;;;;;;30.70;24.27;;;2.70;92.70;;;;;;5017699;28;20258;-88
2020/12/09 03:09:37;;;;;;;31.23;25.20;;;2.70;93.40;;;;;;5017154;28;20194;-89
2020/12/09 03:12:02;;;;;;;33.07;25.80;;;2.80;92.50;;;;;;5008706;28;20253;-88
2020/12/09 03:14:28;;;;;;;32.07;25.77;;;3.00;92.10;;;;;;5008386;28;20649;-88
2020/12/09 03:16:54;;;;;;;33.73;26.80;;;2.90;92.50;;;;;;5009443;28;20638;-88
2020/12/09 03:19:19;;;;;;;31.37;24.37;;;2.80;93.50;;;;;;5014572;28;20185;-90
2020/12/09 03:21:45;;;;;;;30.37;24.23;;;2.80;93.50;;;;;;5012812;28;20210;-87
2020/12/09 03:24:11;;;;;;;32.03;25.17;;;2.90;93.20;;;;;;5013504;28;20241;-88
2020/12/09 03:26:36;;;;;;;33.67;26.50;;;3.00;93.00;;;;;;5013309;28;20234;-89
2020/12/09 03:29:03;;;;;;;31.17;25.27;;;2.90;93.80;;;;;;5013165;28;20490;-88
2020/12/09 03:31:29;;;;;;;30.87;26.50;;;3.00;93.80;;;;;;5007083;28;20202;-88
2020/12/09 03:33:54;;;;;;;33.60;25.97;;;3.10;93.20;;;;;;5008275;28;20225;-89
2020/12/09 03:36:20;;;;;;;32.63;25.37;;;2.90;94.40;;;;;;5008005;28;20695;-89
2020/12/09 03:38:46;;;;;;;33.80;25.60;;;2.90;95.00;;;;;;5007514;28;20190;-89
2020/12/09 03:41:11;;;;;;;30.63;26.10;;;2.90;94.90;;;;;;5007556;28;20198;-89
2020/12/09 03:43:37;;;;;;;34.83;26.17;;;3.00;94.40;;;;;;5006142;28;20209;-88
2020/12/09 03:46:03;;;;;;;36.93;25.33;;;3.00;94.50;;;;;;5007809;28;20213;-89
2020/12/09 03:48:28;;;;;;;31.87;25.37;;;3.00;95.00;;;;;;5007863;28;20262;-89
2020/12/09 03:50:54;;;;;;;31.47;25.90;;;2.90;95.70;;;;;;5007148;28;20230;-89
2020/12/09 03:53:21;;;;;;;33.90;25.13;;;3.00;95.20;;;;;;5010728;28;20598;-89
2020/12/09 03:55:48;;;;;;;32.83;25.17;;;2.90;96.10;;;;;;5007562;28;20182;-89
2020/12/09 03:58:14;;;;;;;29.40;24.67;;;2.90;96.70;;;;;;5007650;28;20202;-89
2020/12/09 04:00:40;;;;;;;32.87;25.70;;;2.90;96.50;;;;;;5007390;28;20281;-90
2020/12/09 04:03:05;;;;;;;32.47;25.63;;;2.90;96.50;;;;;;4990454;28;20186;-89
2020/12/09 04:05:31;;;;;;;33.97;25.93;;;2.80;97.10;;;;;;5007238;28;20241;-89
2020/12/09 04:07:57;;;;;;;33.40;25.10;;;3.00;96.10;;;;;;5006328;28;20182;-89
2020/12/09 04:10:22;;;;;;;29.50;25.23;;;3.10;95.40;;;;;;5007079;28;20699;-89
2020/12/09 04:12:48;;;;;;;33.17;25.83;;;3.00;96.10;;;;;;5006162;28;20628;-88
2020/12/09 04:15:14;;;;;;;30.07;24.13;;;2.90;96.80;;;;;;5005976;28;20213;-90
2020/12/09 04:17:40;;;;;;;29.57;24.53;;;2.90;97.20;;;;;;5007439;28;20191;-87
2020/12/09 04:20:07;;;;;;;31.60;25.63;;;3.00;96.50;;;;;;5007616;28;20254;-89
2020/12/09 04:22:33;;;;;;;30.57;24.00;;;3.10;95.40;;;;;;5007763;28;20222;-90
2020/12/09 04:24:58;;;;;;;30.40;25.10;;;3.30;94.60;;;;;;5008662;28;20273;-89
2020/12/09 04:27:24;;;;;;;30.20;23.27;;;3.50;93.70;;;;;;5008252;28;20193;-89
2020/12/09 04:29:50;;;;;;;28.17;23.63;;;3.40;93.20;;;;;;5007225;28;20182;-91
2020/12/09 04:32:16;;;;;;;29.83;24.03;;;3.30;94.50;;;;;;5007038;28;20314;-89
2020/12/09 04:34:42;;;;;;;28.53;23.73;;;3.40;93.80;;;;;;5007918;28;20189;-90
2020/12/09 04:37:08;;;;;;;28.13;23.80;;;3.20;94.70;;;;;;5015849;28;20216;-85
2020/12/09 04:39:34;;;;;;;25.63;21.50;;;3.30;94.90;;;;;;5018364;28;20663;-90
2020/12/09 04:42:00;;;;;;;24.70;21.27;;;3.50;93.40;;;;;;5011028;28;20201;-90
2020/12/09 04:44:25;;;;;;;28.83;22.07;;;3.60;92.90;;;;;;5012889;28;20201;-86
2020/12/09 04:46:53;;;;;;;28.47;22.83;;;3.70;92.60;;;;;;5020815;28;20202;-84
2020/12/09 04:49:23;;;;;;;26.17;21.87;;;3.70;92.00;;;;;;5019143;28;20253;-90
2020/12/09 04:52:31;;;;;;;23.43;20.63;;;3.70;91.90;;;;;;5010037;28;20210;-88
2020/12/09 04:55:09;;;;;;;24.30;21.37;;;3.80;91.50;;;;;;5009964;28;20178;-89
2020/12/09 04:57:41;;;;;;;22.67;19.77;;;3.90;91.10;;;;;;5011217;28;20213;-88
2020/12/09 05:00:12;;;;;;;24.77;21.17;;;3.90;90.90;;;;;;5009622;28;20225;-90
2020/12/09 05:02:45;;;;;;;25.50;21.97;;;3.90;90.40;;;;;;5011172;28;20222;-89
2020/12/09 05:05:14;;;;;;;23.43;20.30;;;3.90;90.60;;;;;;5009842;28;20210;-89
2020/12/09 05:07:49;;;;;;;26.67;21.87;;;3.90;90.60;;;;;;5010824;28;20174;-90
2020/12/09 05:10:20;;;;;;;27.80;22.43;;;3.90;90.20;;;;;;5011801;28;20286;-89
2020/12/09 05:12:51;;;;;;;26.53;22.40;;;3.90;90.50;;;;;;5011029;28;20178;-90
2020/12/09 05:15:21;;;;;;;24.97;21.47;;;3.90;90.60;;;;;;5011104;28;20201;-90
2020/12/09 05:18:04;;;;;;;25.37;22.60;;;3.90;91.00;;;;;;5011733;28;20609;-87
2020/12/09 05:20:34;;;;;;;25.93;23.03;;;3.80;91.50;;;;;;5009664;28;20186;-90
2020/12/09 05:23:01;;;;;;;28.70;22.47;;;3.80;91.70;;;;;;5009451;28;20262;-89
2020/12/09 05:25:28;;;;;;;24.73;21.37;;;3.80;91.90;;;;;;5010457;28;20240;-89
2020/12/09 05:27:55;;;;;;;24.20;20.47;;;3.80;91.40;;;;;;4993223;28;20283;-90
2020/12/09 05:30:46;;;;;;;25.50;21.97;;;3.80;91.40;;;;;;5010331;28;20182;-88
2020/12/09 05:33:18;;;;;;;23.87;19.80;;;3.90;91.10;;;;;;5009589;28;20183;-90
2020/12/09 05:35:55;;;;;;;23.23;20.67;;;3.90;90.70;;;;;;5009602;28;20751;-89
2020/12/09 05:38:21;;;;;;;26.73;21.80;;;4.00;90.20;;;;;;5008867;28;20186;-89
2020/12/09 05:40:47;;;;;;;25.20;21.80;;;4.00;90.40;;;;;;5010181;28;20688;-89
2020/12/09 05:43:15;;;;;;;27.07;22.47;;;3.90;90.20;;;;;;5010549;28;20182;-89
2020/12/09 05:45:41;;;;;;;26.87;21.90;;;4.00;90.30;;;;;;5006880;28;20719;-88
2020/12/09 05:48:25;;;;;;;28.27;22.73;;;3.90;91.10;;;;;;5018479;28;20206;-86
2020/12/09 05:50:56;;;;;;;26.03;22.40;;;3.70;92.70;;;;;;5004442;28;20206;-89
2020/12/09 05:53:33;;;;;;;29.60;23.40;;;3.70;92.90;;;;;;5010672;28;20225;-88
2020/12/09 05:56:10;;;;;;;28.73;23.00;;;3.70;93.10;;;;;;5010151;28;20261;-88
2020/12/09 05:58:48;;;;;;;27.90;23.10;;;3.50;93.60;;;;;;5008544;28;20184;-89
2020/12/09 06:01:15;;;;;;;24.53;20.60;;;3.40;94.70;;;;;;5009211;28;20194;-90
2020/12/09 06:03:50;;;;;;;24.30;20.23;;;3.40;95.10;;;;;;5008426;28;20434;-89
2020/12/09 06:06:21;;;;;;;29.20;22.87;;;3.40;95.20;;;;;;5009164;28;20182;-90
2020/12/09 06:08:52;;;;;;;27.83;22.10;;;3.60;94.40;;;;;;5009464;28;20835;-89
2020/12/09 06:11:32;;;;;;;25.90;21.70;;;3.50;94.20;;;;;;5008424;28;20206;-89
2020/12/09 06:13:58;;;;;;;26.53;22.23;;;3.40;94.90;;;;;;5009264;28;20174;-89
2020/12/09 06:16:24;;;;;;;28.33;22.90;;;3.40;95.10;;;;;;5008921;28;20281;-89
2020/12/09 06:18:55;;;;;;;25.63;20.70;;;3.40;95.80;;;;;;5007536;28;20186;-90
2020/12/09 06:21:22;;;;;;;25.53;21.80;;;3.50;94.80;;;;;;5007011;28;20198;-88
2020/12/09 06:23:52;;;;;;;30.00;24.73;;;3.70;93.80;;;;;;5006836;28;20205;-88
2020/12/09 06:26:17;;;;;;;27.23;23.17;;;3.50;94.40;;;;;;4989648;28;20222;-89
2020/12/09 06:28:45;;;;;;;30.10;23.60;;;3.60;94.30;;;;;;5007359;28;20175;-88
2020/12/09 06:31:16;;;;;;;27.33;23.87;;;3.60;94.40;;;;;;4991210;28;20256;-90
2020/12/09 06:33:43;;;;;;;28.67;22.23;;;3.60;93.70;;;;;;5005363;28;20174;-89
2020/12/09 06:36:19;;;;;;;28.20;23.57;;;3.50;95.00;;;;;;5006319;28;20198;-88
2020/12/09 06:39:12;;;;;;;29.50;23.83;;;3.50;95.30;;;;;;5020755;28;20216;-88
2020/12/09 06:41:47;;;;;;;31.30;23.20;;;3.60;94.50;;;;;;5002217;28;20218;-88
2020/12/09 06:44:15;;;;;;;30.43;24.43;;;3.70;93.50;;;;;;5005995;28;20186;-87
2020/12/09 06:46:49;;;;;;;26.70;22.90;;;3.60;94.20;;;;;;5004763;28;20218;-88
2020/12/09 06:49:33;;;;;;;27.47;21.83;;;3.60;94.50;;;;;;5005289;28;20182;-88
2020/12/09 06:52:10;;;;;;;27.00;23.13;;;3.50;95.00;;;;;;5005723;28;20228;-87
2020/12/09 06:54:44;;;;;;;27.27;22.67;;;3.70;94.20;;;;;;5005414;28;20255;-89
2020/12/09 06:57:23;;;;;;;27.17;23.27;;;3.60;94.80;;;;;;5004935;28;20183;-89
2020/12/09 06:59:51;;;;;;;29.03;24.60;;;3.80;93.80;;;;;;5004677;28;20646;-88
2020/12/09 07:02:27;;;;;;;29.80;23.70;;;3.70;94.00;;;;;;4992566;28;20290;-90
2020/12/09 07:04:56;;;;;;;27.93;23.17;;;3.70;94.30;;;;;;5019842;28;20197;-88
2020/12/09 07:07:30;;;;;;;29.80;24.37;;;3.60;94.80;;;;;;5005624;28;20189;-87
2020/12/09 07:09:56;;;;;;;31.23;25.57;;;3.60;95.00;;;;;;5004751;28;20178;-88
2020/12/09 07:12:23;;;;;;;31.27;24.83;;;3.50;95.10;;;;;;5019510;28;20209;-89
2020/12/09 07:14:56;;;;;;;29.37;24.27;;;3.80;93.80;;;;;;5004939;28;20197;-88
2020/12/09 07:17:24;;;;;;;31.27;24.50;;;3.70;94.60;;;;;;5005021;28;20175;-87
2020/12/09 07:19:50;;;;;;;30.60;25.37;;;3.70;94.80;;;;;;5013959;28;20171;-88
2020/12/09 07:22:17;;;;;;;32.47;24.77;;;3.70;94.30;;;;;;5012650;28;20216;-87
2020/12/09 07:24:43;;;;;;;29.30;23.90;;;3.80;93.80;;;;;;5002805;28;20194;-89
2020/12/09 07:27:10;;;;;;;29.83;24.03;;;3.60;94.80;;;;;;5007144;28;20209;-87
2020/12/09 07:30:05;;;;;;;33.90;26.90;;;3.80;94.40;;;;;;5017488;28;20171;-86
2020/12/09 07:32:31;;;;;;;30.43;24.03;;;3.60;95.40;;;;;;5010912;28;20577;-89
2020/12/09 07:35:04;;;;;;;30.83;23.50;;;3.80;94.90;;;;;;5003749;28;20194;-87
2020/12/09 07:37:34;;;;;;;28.87;24.10;;;3.90;94.20;;;;;;5003316;28;20253;-89
2020/12/09 07:40:29;;;;;;;25.17;20.77;;;3.90;93.50;;;;;;5003576;28;20178;-88
2020/12/09 07:43:08;;;;;;;27.10;21.83;;;3.90;93.90;;;;;;5004786;28;20213;-88
2020/12/09 07:45:37;;;;;;;27.57;22.23;;;4.00;93.10;;;;;;5004491;28;20269;-88
2020/12/09 07:48:12;;;;;;;32.57;23.30;;;4.10;92.30;;;;;;5004916;28;20569;-87
2020/12/09 07:50:39;;;;;;;29.63;23.13;;;3.90;92.80;;;;;;5002958;28;20162;-88
2020/12/09 07:53:11;;;;;;;29.60;22.73;;;3.90;93.20;;;;;;5003582;28;20242;-89
2020/12/09 07:55:37;;;;;;;28.83;23.83;;;3.90;93.90;;;;;;5003087;28;20730;-87
2020/12/09 07:58:05;;;;;;;32.50;22.97;;;3.80;94.20;;;;;;5004075;28;20201;-88
2020/12/09 08:00:39;;;;;;;29.70;24.20;;;3.70;94.80;;;;;;4986954;28;20258;-88
2020/12/09 08:03:05;;;;;;;28.60;23.53;;;3.70;95.70;;;;;;4984574;28;20182;-88
2020/12/09 08:05:36;;;;;;;34.17;23.43;;;3.60;95.90;;;;;;4984220;28;20210;-89
2020/12/09 08:08:03;;;;;;;31.07;23.23;;;3.70;95.70;;;;;;4998312;28;20202;-87
2020/12/09 08:10:34;;;;;;;27.17;21.67;;;3.90;94.70;;;;;;5002926;28;20293;-88
2020/12/09 08:13:05;;;;;;;29.37;23.57;;;4.00;93.30;;;;;;5003316;28;20159;-88
2020/12/09 08:15:32;;;;;;;29.37;23.63;;;4.00;93.40;;;;;;5004198;28;20245;-89
2020/12/09 08:17:58;;;;;;;29.80;24.27;;;3.90;94.50;;;;;;5003738;28;20617;-87
2020/12/09 08:20:24;;;;;;;31.33;24.80;;;4.00;93.90;;;;;;5002685;28;20206;-88
2020/12/09 08:23:02;;;;;;;28.43;24.27;;;3.90;94.00;;;;;;4984852;28;20183;-89
2020/12/09 08:25:31;;;;;;;31.73;25.27;;;4.00;93.40;;;;;;4985539;28;20215;-88
2020/12/09 08:28:06;;;;;;;30.67;24.17;;;4.00;93.40;;;;;;4984414;28;20631;-88
2020/12/09 08:30:34;;;;;;;28.00;23.23;;;4.10;93.60;;;;;;4984147;28;20187;-87
2020/12/09 08:33:03;;;;;;;31.97;24.67;;;4.20;92.30;;;;;;4985138;28;20187;-89
2020/12/09 08:35:41;;;;;;;30.10;24.57;;;4.30;91.80;;;;;;4985344;28;20179;-88
2020/12/09 08:38:07;;;;;;;29.60;22.80;;;4.30;91.80;;;;;;4987914;28;20589;-88
2020/12/09 08:40:32;;;;;;;29.17;24.47;;;4.20;92.70;;;;;;4985169;28;20183;-88
2020/12/09 08:42:59;;;;;;;30.83;25.20;;;4.30;92.30;;;;;;4999545;28;20188;-87
2020/12/09 08:45:26;;;;;;;28.73;23.80;;;4.40;92.00;;;;;;5033284;28;20240;-88
2020/12/09 08:47:52;;;;;;;33.07;24.17;;;4.30;92.40;;;;;;4967158;28;20194;-87
2020/12/09 08:50:18;;;;;;;34.17;25.03;;;4.20;92.40;;;;;;4989724;28;20190;-88
2020/12/09 08:52:44;;;;;;;33.03;25.10;;;4.20;93.20;;;;;;4989333;28;20199;-89
2020/12/09 08:55:10;;;;;;;32.10;25.10;;;4.10;93.60;;;;;;5003236;28;20201;-89
2020/12/09 08:57:37;;;;;;;32.30;25.37;;;3.90;94.70;;;;;;4993729;28;20186;-88
2020/12/09 09:00:06;;;;;;;33.20;25.47;;;3.90;95.20;;;;;;4996064;28;20289;-90
2020/12/09 09:02:31;;;;;;;34.40;26.60;;;4.00;94.00;;;;;;4995122;28;20266;-89
2020/12/09 09:04:57;;;;;;;36.60;25.60;;;4.00;94.50;;;;;;4994165;28;20198;-88
2020/12/09 09:07:23;;;;;;;35.93;26.20;;;4.10;93.60;;;;;;5001479;28;20186;-89
2020/12/09 09:09:48;;;;;;;32.00;25.80;;;4.00;94.30;;;;;;4994931;28;20179;-89
2020/12/09 09:12:14;;;;;;;35.97;27.87;;;4.00;95.00;;;;;;5004004;28;20281;-89
2020/12/09 09:14:40;;;;;;;35.87;26.77;;;4.10;93.80;;;;;;5004642;28;20166;-88
2020/12/09 09:17:06;;;;;;;34.63;26.50;;;4.10;94.70;;;;;;5003476;28;20254;-90
2020/12/09 09:19:31;;;;;;;36.00;26.10;;;4.20;93.40;;;;;;5004009;28;20217;-89
2020/12/09 09:21:57;;;;;;;34.50;26.03;;;4.30;93.60;;;;;;5005895;28;20210;-87
2020/12/09 09:24:23;;;;;;;34.90;26.27;;;4.40;92.50;;;;;;5009011;28;20193;-89
2020/12/09 09:26:49;;;;;;;38.20;26.73;;;4.40;92.40;;;;;;5000657;28;20198;-88
2020/12/09 09:29:15;;;;;;;34.00;26.27;;;4.50;92.10;;;;;;5007134;28;20179;-85
2020/12/09 09:31:41;;;;;;;32.63;25.10;;;4.50;92.50;;;;;;4997816;28;20202;-89
2020/12/09 09:34:06;;;;;;;35.13;24.77;;;4.40;92.60;;;;;;4999559;28;20189;-90
2020/12/09 09:36:33;;;;;;;33.67;25.07;;;4.50;92.40;;;;;;4988769;28;20218;-90
2020/12/09 09:38:59;;;;;;;35.30;25.83;;;4.50;92.40;;;;;;4993769;28;20186;-90
2020/12/09 09:41:25;;;;;;;34.80;23.93;;;4.50;92.20;;;;;;5009020;28;20207;-90
2020/12/09 09:43:51;;;;;;;33.07;23.57;;;4.50;92.90;;;;;;4994000;28;20621;-89
2020/12/09 09:46:23;;;;;;;33.50;24.83;;;4.50;93.00;;;;;;4989638;28;20206;-88
2020/12/09 09:48:49;;;;;;;33.23;24.40;;;4.50;93.10;;;;;;5003571;28;20190;-90
2020/12/09 09:51:15;;;;;;;33.43;25.10;;;4.50;92.70;;;;;;5002969;28;20211;-90
2020/12/09 09:53:41;;;;;;;37.63;24.77;;;4.40;93.30;;;;;;5008901;28;20178;-90
2020/12/09 09:56:07;;;;;;;33.33;24.60;;;4.20;94.40;;;;;;5007649;28;20190;-88
2020/12/09 09:58:33;;;;;;;31.10;22.93;;;4.40;94.30;;;;;;5012672;28;20197;-87
2020/12/09 10:00:59;;;;;;;31.83;23.90;;;4.50;93.10;;;;;;5044176;28;20269;-86
2020/12/09 10:03:25;;;;;;;31.80;23.70;;;4.60;92.60;;;;;;5031720;28;20178;-86
2020/12/09 10:05:52;;;;;;;33.63;23.07;;;4.60;92.70;;;;;;5028669;28;20217;-90
2020/12/09 10:08:18;;;;;;;33.97;22.87;;;4.70;90.90;;;;;;5041237;28;20213;-89
2020/12/09 10:10:44;;;;;;;33.43;23.13;;;4.70;91.20;;;;;;5037295;28;20221;-86
2020/12/09 10:13:10;;;;;;;30.00;23.13;;;4.70;90.80;;;;;;5035395;28;20185;-88
2020/12/09 10:15:36;;;;;;;30.27;21.83;;;4.70;91.20;;;;;;5021269;28;20277;-90
2020/12/09 10:18:02;;;;;;;28.43;21.30;;;4.70;91.00;;;;;;5027473;28;20194;-88
2020/12/09 10:20:27;;;;;;;30.13;21.87;;;4.70;89.60;;;;;;5041441;28;20201;-89
2020/12/09 10:22:53;;;;;;;32.30;22.27;;;4.70;90.10;;;;;;5025054;28;20198;-89
2020/12/09 10:25:19;;;;;;;31.80;23.00;;;4.70;91.00;;;;;;5023635;28;20217;-89
2020/12/09 10:27:45;;;;;;;31.63;22.80;;;4.80;89.20;;;;;;5022431;28;20192;-87
2020/12/09 10:30:11;;;;;;;30.83;22.70;;;4.80;89.40;;;;;;5041838;28;20214;-88
2020/12/09 10:32:36;;;;;;;30.27;21.60;;;4.80;89.50;;;;;;5023651;28;20307;-90
2020/12/09 10:35:06;;;;;;;30.93;22.87;;;4.90;89.30;;;;;;5022853;28;20501;-89
2020/12/09 10:37:32;;;;;;;31.00;23.80;;;4.90;89.20;;;;;;5022619;28;20557;-88
2020/12/09 10:39:58;;;;;;;29.53;21.50;;;4.90;88.80;;;;;;5021067;28;20189;-89
2020/12/09 10:42:24;;;;;;;29.83;21.53;;;4.80;89.40;;;;;;5026364;28;20286;-88
2020/12/09 10:44:50;;;;;;;34.23;22.67;;;4.90;89.00;;;;;;5027996;28;20182;-89
2020/12/09 10:47:16;;;;;;;32.50;23.07;;;4.90;89.10;;;;;;5039041;28;20353;-89
2020/12/09 10:49:45;;;;;;;34.60;24.10;;;4.90;89.10;;;;;;5026351;28;20197;-89
2020/12/09 10:52:11;;;;;;;30.60;22.60;;;4.80;89.90;;;;;;5026015;28;20229;-90
2020/12/09 10:54:38;;;;;;;35.97;25.17;;;4.90;90.00;;;;;;5027458;28;20246;-89
2020/12/09 10:57:04;;;;;;;32.33;23.93;;;4.80;90.50;;;;;;5024792;28;20198;-90
2020/12/09 10:59:31;;;;;;;48.90;35.60;;;4.90;90.10;;;;;;5023693;28;20194;-89
2020/12/09 11:01:57;;;;;;;36.13;27.50;;;4.90;90.40;;;;;;5026375;28;20209;-89
2020/12/09 11:04:23;;;;;;;52.93;41.67;;;4.90;90.20;;;;;;5019893;28;20195;-87
2020/12/09 11:06:49;;;;;;;30.20;22.83;;;5.00;89.50;;;;;;5022188;28;20222;-89
2020/12/09 11:09:15;;;;;;;96.43;72.87;;;5.00;90.00;;;;;;5033902;28;20857;-87
2020/12/09 11:11:45;;;;;;;69.67;50.17;;;4.90;90.30;;;;;;5018425;28;20213;-87
2020/12/09 11:14:13;;;;;;;44.33;30.83;;;4.90;90.80;;;;;;5027112;28;20181;-87
2020/12/09 11:16:39;;;;;;;39.20;26.53;;;4.90;90.60;;;;;;5025445;28;20731;-87
2020/12/09 11:19:05;;;;;;;51.97;37.00;;;4.90;91.20;;;;;;5037968;28;20193;-87
2020/12/09 11:21:30;;;;;;;39.67;27.53;;;5.00;90.40;;;;;;5020111;28;20209;-88
2020/12/09 11:23:56;;;;;;;41.90;29.77;;;5.00;90.50;;;;;;5019244;28;20202;-88
2020/12/09 11:26:22;;;;;;;32.70;22.37;;;5.00;90.50;;;;;;5020136;28;20214;-87
2020/12/09 11:28:50;;;;;;;28.83;21.90;;;5.00;90.40;;;;;;5036176;28;20557;-87
2020/12/09 11:31:20;;;;;;;313.57;195.03;;;5.00;89.90;;;;;;5041843;28;20231;-87
2020/12/09 11:33:45;;;;;;;41.73;31.57;;;5.00;90.00;;;;;;5039844;28;20243;-86
2020/12/09 11:36:11;;;;;;;36.10;26.40;;;5.00;90.10;;;;;;5023013;28;20291;-88
2020/12/09 11:38:37;;;;;;;29.27;21.33;;;5.10;90.50;;;;;;5026755;28;20216;-88
2020/12/09 11:41:02;;;;;;;30.57;20.40;;;5.10;90.60;;;;;;5026319;28;20265;-88
2020/12/09 11:43:28;;;;;;;27.07;19.90;;;5.10;90.10;;;;;;5026519;28;20701;-88
2020/12/09 11:45:57;;;;;;;31.57;21.27;;;5.00;89.80;;;;;;5026542;28;20240;-87
2020/12/09 11:48:23;;;;;;;26.10;19.10;;;5.00;90.40;;;;;;5036785;28;20193;-88
2020/12/09 11:50:49;;;;;;;27.23;19.17;;;5.00;90.90;;;;;;5018295;28;20225;-89
2020/12/09 11:53:15;;;;;;;28.47;21.67;;;4.90;91.00;;;;;;4999492;28;20185;-87
2020/12/09 11:55:41;;;;;;;24.60;17.77;;;5.10;90.40;;;;;;5025594;28;20196;-87
2020/12/09 11:58:07;;;;;;;26.47;18.30;;;5.10;90.30;;;;;;5015806;28;20194;-87
2020/12/09 12:00:33;;;;;;;24.70;18.73;;;5.10;91.00;;;;;;5025206;28;20248;-86
2020/12/09 12:02:58;;;;;;;23.47;19.23;;;5.10;90.60;;;;;;5023900;28;20232;-86
2020/12/09 12:05:26;;;;;;;22.67;17.87;;;5.00;91.40;;;;;;5024473;28;20212;-87
2020/12/09 12:07:52;;;;;;;25.83;19.40;;;5.10;90.70;;;;;;5015788;28;20189;-89
2020/12/09 12:10:18;;;;;;;27.77;18.37;;;5.20;89.70;;;;;;4999148;28;20249;-88
2020/12/09 12:12:44;;;;;;;23.50;18.00;;;5.20;89.80;;;;;;5021817;28;20239;-87
2020/12/09 12:15:09;;;;;;;24.03;19.13;;;5.20;89.60;;;;;;5009819;28;20197;-88
2020/12/09 12:17:35;;;;;;;23.27;18.13;;;5.30;89.60;;;;;;5002193;28;20197;-87
2020/12/09 12:20:02;;;;;;;21.40;15.93;;;5.30;88.40;;;;;;5024994;28;20209;-87
2020/12/09 12:22:28;;;;;;;19.47;16.20;;;5.30;87.90;;;;;;5024664;28;20216;-89
2020/12/09 12:24:54;;;;;;;19.13;15.87;;;5.40;87.20;;;;;;5018997;28;20197;-86
2020/12/09 12:27:19;;;;;;;17.53;14.97;;;5.40;85.90;;;;;;5010565;28;20357;-87
2020/12/09 12:29:46;;;;;;;18.60;14.70;;;5.40;85.30;;;;;;5017581;28;20650;-87
2020/12/09 12:32:11;;;;;;;17.00;13.83;;;5.30;86.20;;;;;;5016713;28;20244;-87
2020/12/09 12:34:37;;;;;;;19.20;15.90;;;5.30;86.20;;;;;;5012048;28;20235;-87
2020/12/09 12:37:04;;;;;;;25.03;17.73;;;5.30;86.30;;;;;;5018863;28;20213;-87
2020/12/09 12:39:30;;;;;;;18.03;16.10;;;5.30;85.90;;;;;;5025450;28;20228;-88